ソウル/仁川 の空港の天気 - METARとTAF

仁川国際空港 ( RKSI / ICN ) - 韓国 仁川広域市 (ソウル特別市近郊)
飛行場実況気象(Metar)
観測時間05/18 07:00 KST (05/17 22:00 UTC)
風向・風速西 1m/s
視程9000m
天気現象
なし
気温14℃
湿度88%
気圧1011hPa
METARRKSI 172200Z 26002KT 9000 NSC 14/12 Q1011 NOSIG
過去の天気等 Google飛行場航空写真 Wunderground天気予報

過去48時間のMETAR

飛行場予報(TAF)
発表時間: 5/18 02:00 KST (5/17 17:00 UTC)
予報対象時間: 18日3時 KST ~ 19日9時 KST
風向・風速南 3m/s
視程6000m
なし
18日13時 KST ~ 18日14時 KST に徐々に
風向・風速西南西 3m/s
視程10km以上
なし
18日23時 KST ~ 18日24時 KST に徐々に
風向・風速南 3m/s
視程6000m
なし
19日2時 KST ~ 19日3時 KST に徐々に
視程4000m
天気現象もや
19日5時 KST ~ 19日6時 KST に徐々に
視程2000m
19日8時 KST ~ 19日9時 KST に徐々に
視程6000m
天気現象運行に影響にある天気現象が終了
TAF RKSI 171700Z 1718/1824 19006KT 6000 NSC TN13/1720Z TX22/1805Z TN13/1820Z
BECMG 1804/1805 25006KT CAVOK
BECMG 1814/1815 18006KT 6000 NSC
BECMG 1817/1818 4000 BR
BECMG 1820/1821 2000
BECMG 1823/1824 6000 NSW